createdAt,value
2017-08-30T00:00:06.838Z,20.70
2017-08-30T00:02:34.289Z,20.80
2017-08-30T00:05:01.779Z,20.70
2017-08-30T00:07:29.226Z,20.70
2017-08-30T00:09:56.689Z,20.80
2017-08-30T00:12:24.159Z,20.90
2017-08-30T00:14:51.613Z,21.00
2017-08-30T00:17:19.078Z,20.90
2017-08-30T00:19:46.551Z,20.60
2017-08-30T00:22:14.005Z,20.50
2017-08-30T00:24:53.562Z,21.00
2017-08-30T00:27:21.021Z,21.10
2017-08-30T00:29:48.479Z,21.20
2017-08-30T00:32:15.950Z,21.30
2017-08-30T00:34:43.405Z,21.20
2017-08-30T00:37:10.862Z,21.30
2017-08-30T00:39:38.327Z,21.20
2017-08-30T00:42:05.810Z,21.20
2017-08-30T00:44:33.267Z,21.20
2017-08-30T00:47:00.726Z,20.90
2017-08-30T00:49:28.203Z,20.50
2017-08-30T00:51:55.662Z,20.90
2017-08-30T00:54:23.117Z,21.30
2017-08-30T00:56:50.802Z,21.40
2017-08-30T00:59:18.263Z,21.20
2017-08-30T01:01:45.718Z,21.10
2017-08-30T01:04:13.184Z,21.20
2017-08-30T01:06:40.638Z,21.00
2017-08-30T01:09:08.096Z,20.90
2017-08-30T01:11:35.570Z,20.80
2017-08-30T01:14:03.026Z,20.90
2017-08-30T01:16:30.479Z,21.00
2017-08-30T01:18:58.211Z,21.00
2017-08-30T01:21:25.681Z,21.00
2017-08-30T01:23:53.133Z,20.90
2017-08-30T01:26:20.617Z,20.90
2017-08-30T01:28:48.070Z,20.90
2017-08-30T01:31:15.599Z,20.90
2017-08-30T01:33:43.066Z,20.90
2017-08-30T01:36:10.527Z,20.90
2017-08-30T01:38:38.001Z,20.90
2017-08-30T01:41:05.453Z,20.80
2017-08-30T01:43:32.910Z,20.90
2017-08-30T01:46:00.558Z,20.90
2017-08-30T01:48:28.017Z,20.90
2017-08-30T01:50:55.465Z,20.90
2017-08-30T01:53:23.289Z,20.70
2017-08-30T01:55:50.742Z,20.80
2017-08-30T01:58:18.198Z,20.80
2017-08-30T02:00:45.678Z,20.80
2017-08-30T02:03:13.137Z,20.80
2017-08-30T02:05:40.582Z,20.70
2017-08-30T02:08:08.053Z,20.60
2017-08-30T02:10:35.511Z,20.60
2017-08-30T02:13:02.974Z,20.30
2017-08-30T02:15:30.447Z,20.00
2017-08-30T02:17:57.891Z,20.00
2017-08-30T02:20:25.609Z,19.80
2017-08-30T02:22:53.066Z,19.90
2017-08-30T02:25:20.527Z,20.00
2017-08-30T02:27:48.094Z,20.00
2017-08-30T02:30:15.579Z,19.90
2017-08-30T02:32:43.026Z,20.20
2017-08-30T02:35:10.502Z,20.50
2017-08-30T02:37:37.962Z,20.60
2017-08-30T02:40:05.414Z,20.40
2017-08-30T02:42:32.898Z,20.20
2017-08-30T02:45:00.354Z,20.10
2017-08-30T02:47:27.810Z,20.00
2017-08-30T02:49:55.312Z,19.90
2017-08-30T02:52:22.782Z,20.00
2017-08-30T02:54:50.226Z,19.90
2017-08-30T02:57:17.726Z,19.70
2017-08-30T02:59:45.187Z,19.80
2017-08-30T03:02:12.642Z,19.80
2017-08-30T03:04:40.110Z,19.80
2017-08-30T03:07:07.572Z,19.70
2017-08-30T03:09:35.058Z,19.70
2017-08-30T03:12:02.516Z,19.70
2017-08-30T03:14:29.981Z,19.60
2017-08-30T03:16:57.446Z,19.50
2017-08-30T03:19:24.906Z,19.60
2017-08-30T03:21:52.383Z,19.60
2017-08-30T03:24:19.835Z,19.80
2017-08-30T03:26:47.299Z,19.80
2017-08-30T03:29:14.791Z,19.70
2017-08-30T03:31:42.249Z,19.70
2017-08-30T03:34:09.703Z,19.70
2017-08-30T03:36:37.176Z,19.70
2017-08-30T03:39:04.639Z,19.60
2017-08-30T03:41:32.100Z,19.90
2017-08-30T03:43:59.594Z,20.10
2017-08-30T03:46:27.053Z,20.10
2017-08-30T03:51:47.130Z,19.50
2017-08-30T03:54:14.583Z,19.50
2017-08-30T03:56:42.047Z,19.60
2017-08-30T03:59:09.512Z,19.80
2017-08-30T04:01:36.991Z,19.90
2017-08-30T04:04:04.451Z,19.90
2017-08-30T04:06:32.030Z,19.70
2017-08-30T04:08:59.839Z,19.60
2017-08-30T04:11:27.298Z,19.30
2017-08-30T04:13:54.755Z,19.30
2017-08-30T04:16:22.390Z,19.30
2017-08-30T04:18:49.848Z,19.20
2017-08-30T04:21:17.302Z,19.20
2017-08-30T04:23:44.798Z,19.30
2017-08-30T04:26:12.263Z,19.30
2017-08-30T04:28:39.719Z,19.40
2017-08-30T04:31:07.212Z,19.40
2017-08-30T04:33:34.688Z,19.30
2017-08-30T04:36:02.151Z,19.30
2017-08-30T04:38:29.656Z,19.20
2017-08-30T04:40:57.116Z,19.30
2017-08-30T04:43:24.602Z,19.20
2017-08-30T04:45:52.095Z,19.20
2017-08-30T04:48:19.551Z,19.30
2017-08-30T04:50:47.028Z,19.40
2017-08-30T04:53:14.494Z,19.30
2017-08-30T04:55:41.948Z,19.50
2017-08-30T04:58:09.453Z,19.60
2017-08-30T05:00:36.926Z,19.50
2017-08-30T05:03:04.383Z,19.60
2017-08-30T05:05:31.858Z,19.60
2017-08-30T05:07:59.321Z,19.60
2017-08-30T05:10:26.788Z,19.60
2017-08-30T05:12:54.483Z,19.70
2017-08-30T05:15:21.945Z,19.50
2017-08-30T05:17:49.394Z,19.50
2017-08-30T05:20:16.886Z,19.40
2017-08-30T05:22:44.343Z,19.30
2017-08-30T05:25:11.808Z,19.40
2017-08-30T05:27:39.568Z,19.40
2017-08-30T05:30:07.031Z,19.30
2017-08-30T05:32:34.505Z,19.50
2017-08-30T05:35:01.994Z,19.40
2017-08-30T05:37:29.451Z,19.50
2017-08-30T05:39:56.911Z,19.40
2017-08-30T05:42:24.673Z,19.40
2017-08-30T05:44:52.130Z,19.50
2017-08-30T05:47:19.594Z,19.50
2017-08-30T05:49:47.447Z,19.50
2017-08-30T05:52:15.043Z,19.60
2017-08-30T05:54:42.515Z,19.60
2017-08-30T05:57:10.007Z,19.70
2017-08-30T05:59:37.580Z,19.70
2017-08-30T06:02:05.440Z,19.70
2017-08-30T06:04:32.894Z,19.80
2017-08-30T06:07:00.395Z,19.90
2017-08-30T06:09:27.852Z,19.90
2017-08-30T06:11:55.314Z,19.90
2017-08-30T06:14:22.791Z,20.10
2017-08-30T06:16:50.250Z,20.20
2017-08-30T06:19:17.740Z,20.10
2017-08-30T06:21:45.199Z,20.20
2017-08-30T06:24:12.682Z,20.20
2017-08-30T06:26:40.147Z,20.30
2017-08-30T06:29:07.620Z,20.50
2017-08-30T06:31:35.114Z,20.60
2017-08-30T06:34:02.595Z,20.70
2017-08-30T06:36:30.052Z,20.90
2017-08-30T06:38:57.875Z,21.20
2017-08-30T06:41:25.336Z,21.30
2017-08-30T06:43:52.790Z,21.10
2017-08-30T06:46:20.275Z,21.00
2017-08-30T06:48:47.731Z,21.00
2017-08-30T06:51:15.200Z,21.10
2017-08-30T06:53:42.679Z,21.00
2017-08-30T06:56:10.343Z,21.00
2017-08-30T06:58:37.804Z,21.00
2017-08-30T07:01:05.275Z,21.00
2017-08-30T07:03:32.822Z,21.00
2017-08-30T07:06:00.275Z,21.10
2017-08-30T07:08:27.735Z,21.00
2017-08-30T07:10:55.220Z,21.30
2017-08-30T07:13:22.675Z,21.20
2017-08-30T07:15:50.135Z,21.40
2017-08-30T07:18:17.627Z,21.60
2017-08-30T07:20:45.083Z,21.60
2017-08-30T07:23:12.547Z,21.30
2017-08-30T07:25:40.345Z,21.40
2017-08-30T07:28:07.815Z,21.60
2017-08-30T07:30:35.312Z,21.70
2017-08-30T07:33:06.759Z,21.90
2017-08-30T07:35:34.224Z,21.90
2017-08-30T07:38:01.687Z,22.00
2017-08-30T07:40:29.166Z,22.00
2017-08-30T07:42:56.623Z,22.20
2017-08-30T07:45:24.085Z,22.50
2017-08-30T07:47:51.594Z,22.80
2017-08-30T07:50:19.071Z,22.80
2017-08-30T07:52:46.544Z,22.90
2017-08-30T07:55:14.199Z,23.30
2017-08-30T07:57:48.384Z,23.70
2017-08-30T08:00:15.860Z,23.80
2017-08-30T08:02:43.324Z,24.00
2017-08-30T08:05:10.818Z,24.10
2017-08-30T08:07:38.300Z,24.40
2017-08-30T08:10:05.764Z,24.30
2017-08-30T08:12:33.264Z,24.00
2017-08-30T08:15:00.744Z,23.90
2017-08-30T08:17:28.216Z,24.00
2017-08-30T08:19:55.984Z,24.00
2017-08-30T08:22:23.600Z,23.80
2017-08-30T08:24:51.316Z,23.80
2017-08-30T08:27:18.791Z,23.90
2017-08-30T08:29:46.294Z,24.10
2017-08-30T08:32:14.667Z,24.10
2017-08-30T08:34:42.156Z,24.20
2017-08-30T08:37:09.614Z,24.20
2017-08-30T08:39:37.409Z,24.10
2017-08-30T08:42:04.870Z,24.30
2017-08-30T08:44:32.443Z,24.40
2017-08-30T08:46:59.943Z,24.20
2017-08-30T08:49:27.416Z,24.50
2017-08-30T08:51:54.863Z,24.90
2017-08-30T08:54:22.345Z,25.10
2017-08-30T08:56:49.830Z,25.30
2017-08-30T08:59:17.286Z,25.30
2017-08-30T09:01:44.772Z,25.30
2017-08-30T09:04:12.254Z,25.20
2017-08-30T09:06:39.747Z,25.10
2017-08-30T09:09:07.706Z,25.40
2017-08-30T09:11:35.178Z,25.70
2017-08-30T09:14:02.650Z,26.00
2017-08-30T09:16:30.155Z,25.70
2017-08-30T09:18:57.631Z,26.20
2017-08-30T09:21:25.086Z,25.60
2017-08-30T09:23:52.574Z,25.20
2017-08-30T09:26:20.036Z,25.60
2017-08-30T09:28:47.510Z,25.20
2017-08-30T09:31:14.979Z,24.90
2017-08-30T09:33:42.468Z,25.20
2017-08-30T09:36:09.946Z,25.10
2017-08-30T09:38:37.450Z,25.90
2017-08-30T09:41:05.323Z,25.80
2017-08-30T09:43:33.187Z,25.90
2017-08-30T09:46:00.669Z,26.00
2017-08-30T09:48:28.124Z,26.40
2017-08-30T09:50:55.583Z,26.60
2017-08-30T09:53:23.071Z,26.90
2017-08-30T09:55:50.664Z,27.10
2017-08-30T09:58:18.120Z,27.00
2017-08-30T10:00:45.970Z,27.10
2017-08-30T10:03:13.427Z,26.80
2017-08-30T10:05:40.886Z,26.60
2017-08-30T10:08:08.379Z,27.40
2017-08-30T10:10:35.845Z,27.60
2017-08-30T10:13:03.310Z,28.00
2017-08-30T10:15:31.805Z,27.70
2017-08-30T10:17:59.311Z,28.10
2017-08-30T10:20:26.791Z,28.10
2017-08-30T10:22:54.757Z,28.30
2017-08-30T10:25:22.266Z,28.20
2017-08-30T10:27:49.747Z,27.70
2017-08-30T10:30:17.208Z,27.70
2017-08-30T10:32:44.670Z,28.30
2017-08-30T10:35:12.200Z,28.40
2017-08-30T10:37:39.671Z,28.40
2017-08-30T10:40:07.519Z,28.30
2017-08-30T10:42:35.008Z,28.40
2017-08-30T10:45:02.497Z,28.60
2017-08-30T10:47:30.026Z,28.20
2017-08-30T10:49:58.322Z,28.50
2017-08-30T10:52:25.779Z,28.20
2017-08-30T10:54:53.921Z,28.30
2017-08-30T10:57:21.429Z,28.60
2017-08-30T10:59:49.048Z,28.90
2017-08-30T11:02:16.536Z,29.30
2017-08-30T11:04:44.024Z,28.90
2017-08-30T11:07:11.488Z,28.60
2017-08-30T11:09:38.966Z,28.90
2017-08-30T11:12:06.455Z,29.10
2017-08-30T11:14:33.919Z,29.20
2017-08-30T11:17:01.408Z,29.10
2017-08-30T11:19:28.874Z,29.00
2017-08-30T11:21:56.348Z,28.80
2017-08-30T11:24:23.852Z,28.70
2017-08-30T11:26:51.310Z,28.70
2017-08-30T11:29:18.773Z,28.70
2017-08-30T11:31:46.230Z,28.70
2017-08-30T11:34:13.987Z,28.60
2017-08-30T11:36:41.443Z,28.50
2017-08-30T11:39:08.902Z,28.30
2017-08-30T11:41:36.398Z,27.90
2017-08-30T11:44:03.855Z,27.70
2017-08-30T11:46:31.322Z,27.60
2017-08-30T11:48:58.799Z,27.60
2017-08-30T11:51:26.259Z,27.50
2017-08-30T11:53:53.719Z,27.40
2017-08-30T11:56:21.298Z,27.40
2017-08-30T11:58:49.090Z,27.40
2017-08-30T12:01:16.566Z,27.60
2017-08-30T12:03:44.045Z,27.80
2017-08-30T12:06:11.519Z,28.40
2017-08-30T12:08:39.021Z,29.00
2017-08-30T12:11:06.517Z,30.00
2017-08-30T12:13:34.086Z,30.30
2017-08-30T12:16:01.546Z,29.50
2017-08-30T12:18:29.029Z,28.70
2017-08-30T12:20:56.751Z,28.30
2017-08-30T12:23:24.523Z,27.90
2017-08-30T12:25:51.991Z,27.70
2017-08-30T12:28:19.544Z,27.50
2017-08-30T12:30:47.041Z,27.70
2017-08-30T12:33:14.510Z,27.50
2017-08-30T12:35:41.974Z,27.40
2017-08-30T12:38:15.127Z,27.50
2017-08-30T12:40:42.588Z,27.40
2017-08-30T12:43:10.228Z,27.10
2017-08-30T12:45:37.703Z,27.00
2017-08-30T12:48:05.163Z,26.90
2017-08-30T12:50:32.658Z,26.80
2017-08-30T12:53:00.110Z,26.50
2017-08-30T12:55:27.570Z,26.50
2017-08-30T12:57:55.115Z,26.50
2017-08-30T13:00:22.762Z,26.30
2017-08-30T13:02:50.251Z,26.20
2017-08-30T13:05:17.743Z,26.00
2017-08-30T13:07:45.203Z,25.80
2017-08-30T13:10:12.666Z,25.70
2017-08-30T13:12:40.240Z,25.80
2017-08-30T13:15:07.698Z,25.80
2017-08-30T13:17:35.159Z,25.70
2017-08-30T13:20:02.655Z,25.80
2017-08-30T13:22:30.124Z,25.80
2017-08-30T13:24:57.596Z,25.90
2017-08-30T13:27:25.435Z,25.70
2017-08-30T13:29:52.908Z,25.60
2017-08-30T13:32:20.374Z,25.40
2017-08-30T13:34:47.881Z,25.40
2017-08-30T13:37:15.351Z,25.40
2017-08-30T13:39:43.212Z,25.40
2017-08-30T13:42:10.671Z,25.40
2017-08-30T13:44:38.139Z,25.50
2017-08-30T13:47:05.723Z,25.30
2017-08-30T13:49:33.195Z,25.20
2017-08-30T13:52:00.659Z,25.10
2017-08-30T13:54:28.142Z,25.20
2017-08-30T13:56:55.605Z,25.30
2017-08-30T13:59:23.309Z,25.40
2017-08-30T14:01:50.783Z,25.40
2017-08-30T14:04:18.246Z,25.40
2017-08-30T14:06:45.710Z,25.60
2017-08-30T14:09:13.207Z,25.60
2017-08-30T14:11:40.672Z,25.70
2017-08-30T14:14:08.147Z,25.80
2017-08-30T14:16:35.780Z,26.00
2017-08-30T14:19:03.623Z,26.10
2017-08-30T14:21:31.096Z,25.90
2017-08-30T14:23:58.546Z,25.80
2017-08-30T14:26:26.036Z,25.60
2017-08-30T14:28:53.519Z,25.80
2017-08-30T14:31:20.995Z,26.00
2017-08-30T14:33:48.475Z,26.10
2017-08-30T14:36:15.935Z,26.20
2017-08-30T14:38:43.394Z,26.30
2017-08-30T14:41:11.226Z,26.40
2017-08-30T14:43:38.687Z,26.70
2017-08-30T14:46:06.152Z,27.00
2017-08-30T14:48:33.650Z,27.30
2017-08-30T14:51:01.107Z,28.00
2017-08-30T14:53:28.574Z,28.00
2017-08-30T14:55:56.254Z,28.30
2017-08-30T14:58:23.715Z,28.90
2017-08-30T15:00:51.170Z,28.70
2017-08-30T15:03:18.656Z,27.80
2017-08-30T15:05:46.115Z,27.30
2017-08-30T15:08:13.797Z,26.90
2017-08-30T15:10:41.355Z,26.80
2017-08-30T15:13:08.812Z,26.50
2017-08-30T15:15:36.620Z,26.40
2017-08-30T15:18:04.079Z,26.30
2017-08-30T15:20:31.547Z,26.40
2017-08-30T15:22:59.058Z,26.40
2017-08-30T15:25:26.518Z,26.40
2017-08-30T15:27:53.983Z,26.40
2017-08-30T15:30:21.475Z,26.40
2017-08-30T15:32:48.930Z,26.40
2017-08-30T15:35:16.391Z,26.40
2017-08-30T15:37:44.114Z,26.50
2017-08-30T15:40:11.575Z,26.60
2017-08-30T15:42:39.046Z,26.50
2017-08-30T15:45:06.784Z,26.30
2017-08-30T15:47:34.434Z,26.20
2017-08-30T15:50:01.894Z,26.00
2017-08-30T15:52:29.386Z,25.90
2017-08-30T15:54:56.861Z,25.90
2017-08-30T15:57:24.318Z,25.80
2017-08-30T15:59:51.803Z,25.70
2017-08-30T16:02:19.263Z,25.70
2017-08-30T16:04:46.721Z,25.70
2017-08-30T16:07:14.202Z,25.70
2017-08-30T16:09:41.666Z,25.60
2017-08-30T16:12:09.519Z,25.60
2017-08-30T16:14:36.979Z,25.60
2017-08-30T16:17:04.439Z,25.70
2017-08-30T16:19:31.935Z,25.60
2017-08-30T16:21:59.395Z,25.60
2017-08-30T16:24:26.859Z,25.60
2017-08-30T16:26:54.359Z,25.60
2017-08-30T16:29:21.814Z,25.50
2017-08-30T16:31:49.271Z,25.50
2017-08-30T16:34:16.751Z,25.50
2017-08-30T16:36:44.216Z,25.40
2017-08-30T16:39:11.672Z,25.40
2017-08-30T16:41:39.152Z,25.30
2017-08-30T16:44:06.623Z,25.20
2017-08-30T16:46:34.090Z,25.20
2017-08-30T16:49:01.576Z,25.10
2017-08-30T16:51:29.036Z,25.00
2017-08-30T16:53:56.490Z,24.90
2017-08-30T16:56:24.229Z,24.90
2017-08-30T16:58:51.683Z,24.90
2017-08-30T17:01:19.147Z,24.90
2017-08-30T17:03:46.715Z,25.00
2017-08-30T17:06:14.191Z,24.90
2017-08-30T17:08:41.652Z,24.90
2017-08-30T17:11:09.120Z,24.90
2017-08-30T17:13:36.600Z,25.00
2017-08-30T17:16:04.102Z,24.80
2017-08-30T17:18:31.559Z,24.70
2017-08-30T17:20:59.033Z,24.60
2017-08-30T17:23:26.508Z,24.50
2017-08-30T17:25:53.972Z,24.70
2017-08-30T17:28:21.426Z,24.60
2017-08-30T17:30:49.010Z,24.40
2017-08-30T17:33:16.468Z,24.30
2017-08-30T17:35:43.931Z,24.30
2017-08-30T17:38:11.411Z,24.40
2017-08-30T17:40:38.867Z,24.40
2017-08-30T17:43:06.330Z,24.40
2017-08-30T17:45:33.789Z,24.30
2017-08-30T17:48:01.254Z,24.20
2017-08-30T17:50:29.055Z,24.10
2017-08-30T17:52:56.611Z,24.10
2017-08-30T17:55:24.177Z,24.10
2017-08-30T17:57:51.886Z,24.10
2017-08-30T18:00:19.352Z,24.00
2017-08-30T18:02:46.814Z,23.90
2017-08-30T18:05:14.832Z,24.00
2017-08-30T18:07:42.283Z,23.80
2017-08-30T18:10:09.739Z,23.70
2017-08-30T18:12:37.211Z,23.90
2017-08-30T18:15:04.935Z,23.80
2017-08-30T18:17:32.400Z,23.80
2017-08-30T18:20:00.427Z,23.80
2017-08-30T18:22:28.813Z,23.90
2017-08-30T18:24:56.279Z,23.90
2017-08-30T18:27:23.735Z,23.60
2017-08-30T18:29:52.363Z,23.80
2017-08-30T18:32:21.811Z,23.90
2017-08-30T18:34:49.282Z,23.80
2017-08-30T18:37:17.210Z,23.90
2017-08-30T18:39:45.208Z,23.90
2017-08-30T18:42:12.671Z,23.90
2017-08-30T18:44:40.139Z,23.80
2017-08-30T18:47:08.566Z,23.70
2017-08-30T18:49:36.271Z,23.70
2017-08-30T18:52:04.263Z,23.70
2017-08-30T18:54:31.735Z,23.70
2017-08-30T18:56:59.238Z,23.70
2017-08-30T18:59:28.732Z,23.60
2017-08-30T19:01:56.204Z,23.40
2017-08-30T19:04:27.360Z,23.50
2017-08-30T19:06:55.915Z,23.50
2017-08-30T19:09:25.331Z,23.30
2017-08-30T19:11:54.588Z,23.40
2017-08-30T19:14:24.189Z,23.40
2017-08-30T19:16:53.664Z,23.40
2017-08-30T19:19:22.476Z,23.40
2017-08-30T19:21:53.241Z,23.40
2017-08-30T19:24:23.739Z,23.40
2017-08-30T19:26:57.760Z,23.00
2017-08-30T19:29:26.117Z,23.00
2017-08-30T19:31:53.584Z,22.90
2017-08-30T19:34:21.287Z,22.90
2017-08-30T19:36:51.227Z,22.90
2017-08-30T19:39:23.145Z,23.10
2017-08-30T19:41:50.619Z,23.20
2017-08-30T19:44:18.087Z,23.20
2017-08-30T19:46:49.165Z,23.10
2017-08-30T19:49:18.172Z,23.10
2017-08-30T19:51:46.941Z,23.10
2017-08-30T19:54:15.277Z,23.10
2017-08-30T19:56:44.591Z,23.10
2017-08-30T19:59:12.691Z,23.00
2017-08-30T20:01:40.156Z,22.80
2017-08-30T20:04:07.632Z,22.70
2017-08-30T20:06:35.120Z,22.60
2017-08-30T20:09:03.027Z,22.80
2017-08-30T20:11:30.664Z,22.90
2017-08-30T20:13:58.122Z,22.70
2017-08-30T20:16:26.540Z,22.80
2017-08-30T20:18:54.307Z,22.60
2017-08-30T20:21:21.943Z,22.80
2017-08-30T20:23:49.409Z,22.90
2017-08-30T20:26:17.091Z,23.00
2017-08-30T20:28:44.559Z,22.90
2017-08-30T20:31:12.022Z,22.50
2017-08-30T20:33:39.530Z,22.60
2017-08-30T20:36:07.011Z,22.40
2017-08-30T20:38:34.479Z,22.60
2017-08-30T20:41:01.963Z,22.50
2017-08-30T20:43:29.438Z,22.70
2017-08-30T20:45:56.907Z,22.70
2017-08-30T20:48:24.381Z,22.70
2017-08-30T20:50:51.887Z,22.60
2017-08-30T20:53:20.295Z,22.50
2017-08-30T20:55:48.233Z,22.30
2017-08-30T20:58:15.793Z,22.30
2017-08-30T21:00:43.255Z,22.20
2017-08-30T21:03:10.747Z,22.30
2017-08-30T21:05:42.548Z,22.40
2017-08-30T21:08:10.025Z,22.30
2017-08-30T21:10:37.536Z,22.20
2017-08-30T21:13:05.299Z,22.10
2017-08-30T21:15:32.962Z,21.40
2017-08-30T21:18:00.675Z,20.60
2017-08-30T21:20:29.578Z,20.20
2017-08-30T21:22:57.042Z,20.00
2017-08-30T21:25:24.532Z,19.90
2017-08-30T21:27:51.996Z,20.10
2017-08-30T21:30:19.466Z,20.50
2017-08-30T21:32:46.940Z,20.80
2017-08-30T21:35:14.743Z,20.70
2017-08-30T21:37:42.602Z,21.00
2017-08-30T21:40:10.068Z,21.10
2017-08-30T21:42:37.531Z,20.90
2017-08-30T21:45:05.002Z,20.90
2017-08-30T21:47:32.556Z,20.90
2017-08-30T21:50:00.023Z,21.10
2017-08-30T21:52:27.483Z,21.00
2017-08-30T21:54:54.970Z,20.90
2017-08-30T21:57:22.426Z,20.60
2017-08-30T21:59:49.883Z,20.70
2017-08-30T22:02:17.367Z,20.40
2017-08-30T22:04:44.823Z,20.70
2017-08-30T22:07:12.269Z,20.70
2017-08-30T22:09:39.730Z,20.60
2017-08-30T22:12:07.203Z,20.70
2017-08-30T22:14:34.963Z,20.80
2017-08-30T22:17:02.399Z,20.60
2017-08-30T22:19:29.862Z,20.50
2017-08-30T22:21:57.442Z,20.40
2017-08-30T22:24:24.906Z,20.30
2017-08-30T22:26:52.368Z,20.20
2017-08-30T22:29:19.856Z,20.20
2017-08-30T22:31:47.319Z,20.30
2017-08-30T22:34:14.774Z,20.30
2017-08-30T22:36:42.505Z,20.40
2017-08-30T22:39:09.960Z,20.30
2017-08-30T22:41:37.415Z,20.20
2017-08-30T22:44:04.903Z,20.20
2017-08-30T22:46:32.358Z,20.20
2017-08-30T22:48:59.819Z,20.20
2017-08-30T22:51:27.298Z,20.10
2017-08-30T22:53:54.756Z,20.10
2017-08-30T22:56:22.210Z,20.10
2017-08-30T22:58:49.787Z,20.10
2017-08-30T23:01:17.251Z,20.10
2017-08-30T23:03:44.706Z,20.10
2017-08-30T23:06:12.191Z,20.10
2017-08-30T23:08:39.655Z,20.20
2017-08-30T23:11:07.162Z,20.20
2017-08-30T23:13:34.748Z,20.20
2017-08-30T23:16:02.203Z,20.20
2017-08-30T23:18:29.665Z,20.20
2017-08-30T23:20:57.355Z,20.20
2017-08-30T23:23:24.815Z,20.20
2017-08-30T23:25:52.271Z,20.20
2017-08-30T23:28:19.923Z,20.20
2017-08-30T23:30:47.383Z,20.20
2017-08-30T23:33:14.840Z,20.20
2017-08-30T23:35:42.598Z,20.20
2017-08-30T23:38:10.298Z,20.20
2017-08-30T23:40:37.755Z,20.20
2017-08-30T23:43:05.245Z,20.10
2017-08-30T23:45:32.706Z,20.10
2017-08-30T23:48:00.166Z,20.10
2017-08-30T23:50:27.745Z,20.10
2017-08-30T23:52:55.199Z,20.10
2017-08-30T23:55:22.653Z,20.10
2017-08-30T23:57:50.111Z,20.00
